createdAt,value
2019-01-03T00:00:41.392Z,48.28
2019-01-03T00:01:27.868Z,48.37
2019-01-03T00:01:59.475Z,48.36
2019-01-03T00:02:40.622Z,48.46
2019-01-03T00:03:27.898Z,48.58
2019-01-03T00:04:01.904Z,48.63
2019-01-03T00:04:36.120Z,48.70
2019-01-03T00:05:26.424Z,48.75
2019-01-03T00:05:59.753Z,48.86
2019-01-03T00:06:43.003Z,48.92
2019-01-03T00:07:14.584Z,49.02
2019-01-03T00:07:48.588Z,49.10
2019-01-03T00:08:30.094Z,49.13
2019-01-03T00:09:16.571Z,49.23
2019-01-03T00:10:03.410Z,49.34
2019-01-03T00:10:43.669Z,49.42
2019-01-03T00:11:17.189Z,49.46
2019-01-03T00:11:52.679Z,49.52
2019-01-03T00:12:34.180Z,49.56
2019-01-03T00:13:20.654Z,49.70
2019-01-03T00:13:58.145Z,49.78
2019-01-03T00:14:35.392Z,49.89
2019-01-03T00:15:12.664Z,50.02
2019-01-03T00:15:59.098Z,50.02
2019-01-03T00:16:46.406Z,50.16
2019-01-03T00:17:17.998Z,50.07
2019-01-03T00:17:53.146Z,50.36
2019-01-03T00:18:43.445Z,50.23
2019-01-03T00:19:18.707Z,50.66
2019-01-03T00:19:54.732Z,50.73
2019-01-03T00:20:27.094Z,50.79
2019-01-03T00:21:13.567Z,50.97
2019-01-03T00:21:48.882Z,51.17
2019-01-03T00:22:37.099Z,51.25
2019-01-03T00:23:12.654Z,51.31
2019-01-03T00:23:50.781Z,51.35
2019-01-03T00:24:28.303Z,51.44
2019-01-03T00:25:00.735Z,51.40
2019-01-03T00:25:35.040Z,51.55
2019-01-03T00:26:08.470Z,51.39
2019-01-03T00:26:40.075Z,51.65
2019-01-03T00:27:15.264Z,51.66
2019-01-03T00:28:04.574Z,51.66
2019-01-03T00:28:41.894Z,51.79
2019-01-03T00:29:33.259Z,51.89
2019-01-03T00:30:10.444Z,52.07
2019-01-03T00:30:47.673Z,52.03
2019-01-03T00:31:38.949Z,52.07
2019-01-03T00:32:14.109Z,52.33
2019-01-03T00:32:45.702Z,52.30
2019-01-03T00:33:20.138Z,52.35
2019-01-03T00:33:57.449Z,52.38
2019-01-03T00:34:46.733Z,52.56
2019-01-03T00:35:23.855Z,52.58
2019-01-03T00:35:59.021Z,52.68
2019-01-03T00:36:36.323Z,52.60
2019-01-03T00:37:13.476Z,52.56
2019-01-03T00:38:02.784Z,52.81
2019-01-03T00:38:53.032Z,52.93
2019-01-03T00:40:42.186Z,53.12
2019-01-03T00:41:23.488Z,53.10
2019-01-03T00:41:58.704Z,53.33
2019-01-03T00:42:36.985Z,53.08
2019-01-03T00:43:14.233Z,53.17
2019-01-03T00:43:46.629Z,53.13
2019-01-03T00:44:23.950Z,53.41
2019-01-03T00:45:01.059Z,53.19
2019-01-03T00:45:32.668Z,53.51
2019-01-03T00:46:10.074Z,53.45
2019-01-03T00:46:47.289Z,53.64
2019-01-03T00:47:35.694Z,53.57
2019-01-03T00:49:07.542Z,54.10
2019-01-03T00:49:44.729Z,54.01
2019-01-03T00:50:31.197Z,53.98
2019-01-03T00:51:03.691Z,54.03
2019-01-03T00:51:39.016Z,54.09
2019-01-03T00:52:14.026Z,54.03
2019-01-03T00:53:05.420Z,54.09
2019-01-03T00:54:38.547Z,54.26
2019-01-03T00:55:10.156Z,53.90
2019-01-03T00:55:57.557Z,54.29
2019-01-03T00:56:34.908Z,54.34
2019-01-03T00:57:22.168Z,54.20
2019-01-03T00:57:59.557Z,54.55
2019-01-03T00:58:42.809Z,54.49
2019-01-03T00:59:14.406Z,54.42
2019-01-03T00:59:51.737Z,54.36
2019-01-03T01:00:38.219Z,54.32
2019-01-03T01:01:28.489Z,54.27
2019-01-03T01:02:03.623Z,54.22
2019-01-03T01:02:40.953Z,54.11
2019-01-03T01:03:24.202Z,54.21
2019-01-03T01:04:01.565Z,54.25
2019-01-03T01:04:48.040Z,54.20
2019-01-03T01:05:36.292Z,54.23
2019-01-03T01:06:22.783Z,54.16
2019-01-03T01:07:12.061Z,54.25
2019-01-03T01:07:46.233Z,54.24
2019-01-03T01:08:36.626Z,54.26
2019-01-03T01:09:14.050Z,54.27
2019-01-03T01:09:54.210Z,54.29
2019-01-03T01:10:31.337Z,54.25
2019-01-03T01:11:16.615Z,54.28
2019-01-03T01:11:53.779Z,54.32
2019-01-03T01:12:42.306Z,54.35
2019-01-03T01:13:19.598Z,54.41
2019-01-03T01:13:51.976Z,54.42
2019-01-03T01:14:26.086Z,54.41
2019-01-03T01:15:12.525Z,54.44
2019-01-03T01:15:44.132Z,54.46
2019-01-03T01:16:19.547Z,54.46
2019-01-03T01:17:06.025Z,54.46
2019-01-03T01:17:40.203Z,54.53
2019-01-03T01:18:17.533Z,54.55
2019-01-03T01:19:05.738Z,54.56
2019-01-03T01:19:57.148Z,54.62
2019-01-03T01:20:34.250Z,54.63
2019-01-03T01:21:10.301Z,54.62
2019-01-03T01:21:58.623Z,54.63
2019-01-03T01:22:32.021Z,54.66
2019-01-03T01:23:09.308Z,54.69
2019-01-03T01:23:40.915Z,54.67
2019-01-03T01:24:27.394Z,54.66
2019-01-03T01:24:58.999Z,54.72
2019-01-03T01:25:34.435Z,54.73
2019-01-03T01:26:07.965Z,54.73
2019-01-03T01:26:43.323Z,54.69
2019-01-03T01:27:16.365Z,54.67
2019-01-03T01:28:03.606Z,54.71
2019-01-03T01:28:53.085Z,54.75
2019-01-03T01:29:30.357Z,54.76
2019-01-03T01:30:04.796Z,54.74
2019-01-03T01:30:46.302Z,54.73
2019-01-03T01:31:27.800Z,54.72
2019-01-03T01:32:03.878Z,54.71
2019-01-03T01:32:46.352Z,54.70
2019-01-03T01:33:23.647Z,54.66
2019-01-03T01:34:09.015Z,54.59
2019-01-03T01:34:46.475Z,54.59
2019-01-03T01:35:18.799Z,54.53
2019-01-03T01:36:08.204Z,54.47
2019-01-03T01:36:40.703Z,54.37
2019-01-03T01:37:15.714Z,54.30
2019-01-03T01:38:02.189Z,54.18
2019-01-03T01:38:37.481Z,54.17
2019-01-03T01:39:29.712Z,54.06
2019-01-03T01:40:07.142Z,53.63
2019-01-03T01:40:44.589Z,53.51
2019-01-03T01:41:16.189Z,53.57
2019-01-03T01:41:52.325Z,53.63
2019-01-03T01:42:24.633Z,53.40
2019-01-03T01:43:01.863Z,53.34
2019-01-03T01:43:36.027Z,53.24
2019-01-03T01:44:25.356Z,53.30
2019-01-03T01:45:02.539Z,53.22
2019-01-03T01:45:47.906Z,53.22
2019-01-03T01:46:20.006Z,53.14
2019-01-03T01:47:04.300Z,53.10
2019-01-03T01:47:39.605Z,53.21
2019-01-03T01:48:13.730Z,53.27
2019-01-03T01:49:01.919Z,53.60
2019-01-03T01:50:36.161Z,53.25
2019-01-03T01:51:25.426Z,53.28
2019-01-03T01:52:03.666Z,53.17
2019-01-03T01:52:45.184Z,53.20
2019-01-03T01:53:31.657Z,53.05
2019-01-03T01:54:23.214Z,52.78
2019-01-03T01:54:58.801Z,52.92
2019-01-03T01:55:38.054Z,53.01
2019-01-03T01:56:15.445Z,52.80
2019-01-03T01:56:52.620Z,52.83
2019-01-03T01:57:44.868Z,52.88
2019-01-03T01:58:24.264Z,52.94
2019-01-03T01:58:55.858Z,52.98
2019-01-03T01:59:30.444Z,52.97
2019-01-03T02:00:07.768Z,53.07
2019-01-03T02:00:55.020Z,53.08
2019-01-03T02:01:29.281Z,53.13
2019-01-03T02:02:19.600Z,53.06
2019-01-03T02:02:56.998Z,53.20
2019-01-03T02:03:30.020Z,53.16
2019-01-03T02:04:17.443Z,53.27
2019-01-03T02:04:49.401Z,53.28
2019-01-03T02:05:38.705Z,53.33
2019-01-03T02:06:16.019Z,53.35
2019-01-03T02:06:48.120Z,53.38
2019-01-03T02:07:25.384Z,53.41
2019-01-03T02:07:57.727Z,53.38
2019-01-03T02:08:31.038Z,53.48
2019-01-03T02:09:18.380Z,53.63
2019-01-03T02:09:59.937Z,53.69
2019-01-03T02:10:34.477Z,53.74
2019-01-03T02:11:16.832Z,53.78
2019-01-03T02:11:48.443Z,54.03
2019-01-03T02:12:36.667Z,54.19
2019-01-03T02:13:08.743Z,54.19
2019-01-03T02:13:42.112Z,54.17
2019-01-03T02:14:19.342Z,54.21
2019-01-03T02:15:07.650Z,54.30
2019-01-03T02:15:55.034Z,54.38
2019-01-03T02:16:27.480Z,54.43
2019-01-03T02:17:13.963Z,54.46
2019-01-03T02:17:51.989Z,54.58
2019-01-03T02:18:39.314Z,54.55
2019-01-03T02:19:13.748Z,54.67
2019-01-03T02:20:00.977Z,54.70
2019-01-03T02:20:52.407Z,54.74
2019-01-03T02:21:29.726Z,54.93
2019-01-03T02:22:03.826Z,54.92
2019-01-03T02:22:41.031Z,54.91
2019-01-03T02:23:16.511Z,54.94
2019-01-03T02:23:51.798Z,54.94
2019-01-03T02:24:23.395Z,54.93
2019-01-03T02:24:54.996Z,55.04
2019-01-03T02:25:47.392Z,55.08
2019-01-03T02:26:18.986Z,55.23
2019-01-03T02:26:54.357Z,55.26
2019-01-03T02:27:40.833Z,55.31
2019-01-03T02:28:13.037Z,55.39
2019-01-03T02:28:50.208Z,55.37
2019-01-03T02:29:36.701Z,55.42
2019-01-03T02:30:10.285Z,55.52
2019-01-03T02:30:43.381Z,55.62
2019-01-03T02:31:20.674Z,55.63
2019-01-03T02:31:57.882Z,55.74
2019-01-03T02:32:32.372Z,55.86
2019-01-03T02:33:09.462Z,55.93
2019-01-03T02:33:41.873Z,55.96
2019-01-03T02:34:32.236Z,56.02
2019-01-03T02:35:09.482Z,56.12
2019-01-03T02:35:44.800Z,56.16
2019-01-03T02:36:33.138Z,56.21
2019-01-03T02:37:10.369Z,56.33
2019-01-03T02:37:47.666Z,56.34
2019-01-03T02:38:34.132Z,56.36
2019-01-03T02:39:05.735Z,56.50
2019-01-03T02:39:52.220Z,56.56
2019-01-03T02:40:24.275Z,56.67
2019-01-03T02:41:15.712Z,57.15
2019-01-03T02:42:03.102Z,57.07
2019-01-03T02:42:38.578Z,57.06
2019-01-03T02:43:15.934Z,57.18
2019-01-03T02:43:48.328Z,57.20
2019-01-03T02:44:30.691Z,57.20
2019-01-03T02:45:07.848Z,57.27
2019-01-03T02:45:49.361Z,57.40
2019-01-03T02:46:31.650Z,57.64
2019-01-03T02:47:18.140Z,57.50
2019-01-03T02:47:50.226Z,57.58
2019-01-03T02:48:38.445Z,57.57
2019-01-03T02:49:28.897Z,57.58
2019-01-03T02:50:00.512Z,57.74
2019-01-03T02:50:32.120Z,57.73
2019-01-03T02:51:09.476Z,57.66
2019-01-03T02:51:41.824Z,57.75
2019-01-03T02:52:24.115Z,57.68
2019-01-03T02:52:56.210Z,57.79
2019-01-03T02:53:33.529Z,57.80
2019-01-03T02:54:21.885Z,57.74
2019-01-03T02:55:14.230Z,57.73
2019-01-03T02:56:01.582Z,57.61
2019-01-03T02:57:45.962Z,57.63
2019-01-03T02:58:23.718Z,57.61
2019-01-03T02:59:00.660Z,57.57
2019-01-03T02:59:38.010Z,57.60
2019-01-03T03:00:09.602Z,57.54
2019-01-03T03:00:51.119Z,57.48
2019-01-03T03:01:39.430Z,57.43
2019-01-03T03:02:11.685Z,57.28
2019-01-03T03:02:43.750Z,57.30
2019-01-03T03:03:24.091Z,57.43
2019-01-03T03:04:00.184Z,57.37
2019-01-03T03:04:46.671Z,57.33
2019-01-03T03:05:19.136Z,57.29
2019-01-03T03:05:53.068Z,57.32
2019-01-03T03:06:35.434Z,57.26
2019-01-03T03:07:12.848Z,57.30
2019-01-03T03:07:45.856Z,57.27
2019-01-03T03:08:22.415Z,57.24
2019-01-03T03:09:13.928Z,57.28
2019-01-03T03:10:00.260Z,57.31
2019-01-03T03:10:31.854Z,57.34
2019-01-03T03:11:19.228Z,57.32
2019-01-03T03:13:01.629Z,57.33
2019-01-03T03:13:46.943Z,57.45
2019-01-03T03:14:36.387Z,57.49
2019-01-03T03:15:28.880Z,57.47
2019-01-03T03:16:04.172Z,57.49
2019-01-03T03:16:50.665Z,57.52
2019-01-03T03:17:25.805Z,57.55
2019-01-03T03:18:00.040Z,57.56
2019-01-03T03:18:37.444Z,57.60
2019-01-03T03:19:11.442Z,57.58
2019-01-03T03:19:45.673Z,57.57
2019-01-03T03:20:38.004Z,57.50
2019-01-03T03:21:16.284Z,57.51
2019-01-03T03:21:48.375Z,57.49
2019-01-03T03:22:23.922Z,57.47
2019-01-03T03:23:02.044Z,57.48
2019-01-03T03:23:35.235Z,57.39
2019-01-03T03:24:12.430Z,57.26
2019-01-03T03:24:44.788Z,57.14
2019-01-03T03:25:19.174Z,56.92
2019-01-03T03:25:55.728Z,56.67
2019-01-03T03:26:31.830Z,56.54
2019-01-03T03:27:06.879Z,56.21
2019-01-03T03:27:42.064Z,56.05
2019-01-03T03:28:19.391Z,56.12
2019-01-03T03:28:52.420Z,56.13
2019-01-03T03:29:29.633Z,56.24
2019-01-03T03:30:06.811Z,55.99
2019-01-03T03:30:43.958Z,56.07
2019-01-03T03:31:18.695Z,56.13
2019-01-03T03:31:56.021Z,55.88
2019-01-03T03:32:30.407Z,55.89
2019-01-03T03:33:03.565Z,55.75
2019-01-03T03:33:46.999Z,55.81
2019-01-03T03:34:24.320Z,55.61
2019-01-03T03:34:57.330Z,55.62
2019-01-03T03:35:45.601Z,55.53
2019-01-03T03:36:32.073Z,55.45
2019-01-03T03:37:20.421Z,55.31
2019-01-03T03:37:57.529Z,55.48
2019-01-03T03:38:44.029Z,55.37
2019-01-03T03:39:30.502Z,55.13
2019-01-03T03:40:07.606Z,55.21
2019-01-03T03:40:50.926Z,55.20
2019-01-03T03:41:34.336Z,55.19
2019-01-03T03:42:10.533Z,55.08
2019-01-03T03:42:47.912Z,55.04
2019-01-03T03:43:25.135Z,54.88
2019-01-03T03:44:00.241Z,54.96
2019-01-03T03:44:37.504Z,55.16
2019-01-03T03:45:28.744Z,55.24
2019-01-03T03:47:08.946Z,55.10
2019-01-03T03:47:42.383Z,55.06
2019-01-03T03:48:29.203Z,55.19
2019-01-03T03:49:16.593Z,55.13
2019-01-03T03:49:49.038Z,55.16
2019-01-03T03:50:25.523Z,55.28
2019-01-03T03:51:00.556Z,55.21
2019-01-03T03:51:37.883Z,55.43
2019-01-03T03:52:11.234Z,55.38
2019-01-03T03:52:57.709Z,55.45
2019-01-03T03:53:45.037Z,55.50
2019-01-03T03:54:22.421Z,55.50
2019-01-03T03:54:55.420Z,55.52
2019-01-03T03:55:32.703Z,55.60
2019-01-03T03:56:06.812Z,55.56
2019-01-03T03:56:44.151Z,55.48
2019-01-03T03:57:21.587Z,55.53
2019-01-03T03:58:14.050Z,55.52
2019-01-03T03:59:01.435Z,55.73
2019-01-03T04:00:39.548Z,55.98
2019-01-03T04:01:13.928Z,56.06
2019-01-03T04:01:51.152Z,55.98
2019-01-03T04:02:23.579Z,56.12
2019-01-03T04:03:10.071Z,56.27
2019-01-03T04:03:58.446Z,56.27
2019-01-03T04:04:33.451Z,56.38
2019-01-03T04:05:14.954Z,56.47
2019-01-03T04:06:02.302Z,56.67
2019-01-03T04:07:48.478Z,56.68
2019-01-03T04:08:40.948Z,56.63
2019-01-03T04:09:29.386Z,56.78
2019-01-03T04:10:21.635Z,57.11
2019-01-03T04:10:58.965Z,56.81
2019-01-03T04:11:31.380Z,56.67
2019-01-03T04:12:17.859Z,56.37
2019-01-03T04:12:51.192Z,56.23
2019-01-03T04:13:25.472Z,55.76
2019-01-03T04:14:12.787Z,55.57
2019-01-03T04:14:55.242Z,54.51
2019-01-03T04:15:43.599Z,54.65
2019-01-03T04:16:15.208Z,55.00
2019-01-03T04:16:52.372Z,55.08
2019-01-03T04:17:33.887Z,55.14
2019-01-03T04:18:07.336Z,55.19
2019-01-03T04:18:54.669Z,55.29
2019-01-03T04:19:32.004Z,55.42
2019-01-03T04:20:18.302Z,55.56
2019-01-03T04:20:54.452Z,55.69
2019-01-03T04:21:46.025Z,55.83
2019-01-03T04:22:32.516Z,55.66
2019-01-03T04:23:09.687Z,55.70
2019-01-03T04:23:47.054Z,55.69
2019-01-03T04:24:36.457Z,55.68
2019-01-03T04:25:13.827Z,55.77
2019-01-03T04:25:50.943Z,55.80
2019-01-03T04:26:29.099Z,55.89
2019-01-03T04:27:10.598Z,55.96
2019-01-03T04:27:47.936Z,56.06
2019-01-03T04:28:22.338Z,56.16
2019-01-03T04:29:08.825Z,56.22
2019-01-03T04:29:46.102Z,56.31
2019-01-03T04:30:20.228Z,56.43
2019-01-03T04:31:10.506Z,56.52
2019-01-03T04:32:01.814Z,56.62
2019-01-03T04:32:39.060Z,56.63
2019-01-03T04:33:11.478Z,56.63
2019-01-03T04:33:45.664Z,56.66
2019-01-03T04:34:33.007Z,56.66
2019-01-03T04:35:09.317Z,56.87
2019-01-03T04:35:55.840Z,56.90
2019-01-03T04:37:26.203Z,57.10
2019-01-03T04:37:57.793Z,57.18
2019-01-03T04:38:33.820Z,57.19
2019-01-03T04:39:10.169Z,57.22
2019-01-03T04:39:41.752Z,57.22
2019-01-03T04:40:13.353Z,57.24
2019-01-03T04:40:44.931Z,57.26
2019-01-03T04:41:28.318Z,57.30
2019-01-03T04:42:14.790Z,57.31
2019-01-03T04:43:01.231Z,57.31
2019-01-03T04:43:50.436Z,57.36
2019-01-03T04:44:38.766Z,57.35
2019-01-03T04:45:14.177Z,57.36
2019-01-03T04:45:48.238Z,57.43
2019-01-03T04:46:25.405Z,57.55
2019-01-03T04:46:57.027Z,57.59
2019-01-03T04:47:31.467Z,57.55
2019-01-03T04:48:03.062Z,57.53
2019-01-03T04:48:50.372Z,57.48
2019-01-03T04:49:22.947Z,57.45
2019-01-03T04:49:56.345Z,57.50
2019-01-03T04:50:43.719Z,57.39
2019-01-03T04:51:32.192Z,57.20
2019-01-03T04:52:18.707Z,57.25
2019-01-03T04:52:53.982Z,57.15
2019-01-03T04:53:42.361Z,56.97
2019-01-03T04:55:19.650Z,56.28
2019-01-03T04:55:56.981Z,56.31
2019-01-03T04:56:34.128Z,56.55
2019-01-03T04:57:08.245Z,56.50
2019-01-03T04:57:43.594Z,56.50
2019-01-03T04:58:20.735Z,56.48
2019-01-03T04:59:07.214Z,56.47
2019-01-03T05:00:39.498Z,55.68
2019-01-03T05:01:26.835Z,55.50
2019-01-03T05:02:18.382Z,55.19
2019-01-03T05:02:52.623Z,54.69
2019-01-03T05:03:29.809Z,54.45
2019-01-03T05:04:21.204Z,54.28
2019-01-03T05:04:55.630Z,54.13
2019-01-03T05:05:32.835Z,53.88
2019-01-03T05:06:06.944Z,53.54
2019-01-03T05:06:48.458Z,53.59
2019-01-03T05:07:25.818Z,53.52
2019-01-03T05:07:57.726Z,53.52
2019-01-03T05:08:32.993Z,53.51
2019-01-03T05:09:05.091Z,53.56
2019-01-03T05:09:37.285Z,53.78
2019-01-03T05:10:14.663Z,53.91
2019-01-03T05:11:02.778Z,53.96
2019-01-03T05:11:51.027Z,54.13
2019-01-03T05:12:28.370Z,54.17
2019-01-03T05:13:17.623Z,54.21
2019-01-03T05:13:59.830Z,54.47
2019-01-03T05:14:33.313Z,54.52
2019-01-03T05:15:17.730Z,54.68
2019-01-03T05:16:10.009Z,54.88
2019-01-03T05:16:47.235Z,54.82
2019-01-03T05:17:35.676Z,55.00
2019-01-03T05:18:12.930Z,55.03
2019-01-03T05:18:50.141Z,55.02
2019-01-03T05:19:36.600Z,55.04
2019-01-03T05:20:08.733Z,55.23
2019-01-03T05:20:44.779Z,55.31
2019-01-03T05:21:22.046Z,55.60
2019-01-03T05:22:08.525Z,55.72
2019-01-03T05:22:55.042Z,55.71
2019-01-03T05:23:32.501Z,55.65
2019-01-03T05:24:09.729Z,55.73
2019-01-03T05:24:47.187Z,55.80
2019-01-03T05:25:18.797Z,55.89
2019-01-03T05:25:56.269Z,55.94
2019-01-03T05:26:37.782Z,56.06
2019-01-03T05:27:26.968Z,56.23
2019-01-03T05:27:59.091Z,56.28
2019-01-03T05:28:34.670Z,56.32
2019-01-03T05:29:07.795Z,56.34
2019-01-03T05:29:57.094Z,56.34
2019-01-03T05:30:34.615Z,56.36
2019-01-03T05:31:07.700Z,56.46
2019-01-03T05:31:56.055Z,56.46
2019-01-03T05:32:32.333Z,56.39
2019-01-03T05:33:04.738Z,56.40
2019-01-03T05:33:46.263Z,56.51
2019-01-03T05:34:30.604Z,56.56
2019-01-03T05:35:06.121Z,56.61
2019-01-03T05:35:38.507Z,56.69
2019-01-03T05:36:15.789Z,56.75
2019-01-03T05:36:52.924Z,57.00
2019-01-03T05:37:28.332Z,56.85
2019-01-03T05:38:05.738Z,56.78
2019-01-03T05:38:52.205Z,56.77
2019-01-03T05:39:25.455Z,56.78
2019-01-03T05:39:57.848Z,56.79
2019-01-03T05:41:29.276Z,56.89
2019-01-03T05:42:19.748Z,56.92
2019-01-03T05:42:54.832Z,57.30
2019-01-03T05:43:26.470Z,57.49
2019-01-03T05:44:16.821Z,57.42
2019-01-03T05:44:48.868Z,57.46
2019-01-03T05:45:22.322Z,57.43
2019-01-03T05:46:09.806Z,57.46
2019-01-03T05:46:47.228Z,57.44
2019-01-03T05:47:21.331Z,57.46
2019-01-03T05:47:54.734Z,57.49
2019-01-03T05:48:32.116Z,57.43
2019-01-03T05:49:18.594Z,57.45
2019-01-03T05:49:50.201Z,57.50
2019-01-03T05:50:24.478Z,57.54
2019-01-03T05:51:01.902Z,57.60
2019-01-03T05:51:50.247Z,57.53
2019-01-03T05:53:23.232Z,57.56
2019-01-03T05:53:55.337Z,57.54
2019-01-03T05:54:32.477Z,57.61
2019-01-03T05:55:05.792Z,57.62
2019-01-03T05:55:42.978Z,57.57
2019-01-03T05:56:20.198Z,57.62
2019-01-03T05:56:57.382Z,57.61
2019-01-03T05:57:34.707Z,57.64
2019-01-03T05:58:10.051Z,57.60
2019-01-03T05:58:44.216Z,57.61
2019-01-03T05:59:18.279Z,57.63
2019-01-03T05:59:50.593Z,57.58
2019-01-03T06:00:27.795Z,57.61
2019-01-03T06:01:02.863Z,57.65
2019-01-03T06:01:53.208Z,57.65
2019-01-03T06:02:26.573Z,57.64
2019-01-03T06:03:15.992Z,57.62
2019-01-03T06:03:53.192Z,57.65
2019-01-03T06:05:41.326Z,57.57
2019-01-03T06:06:12.912Z,57.53
2019-01-03T06:07:02.246Z,57.55
2019-01-03T06:07:52.637Z,57.53
2019-01-03T06:08:29.977Z,57.50
2019-01-03T06:09:05.413Z,57.49
2019-01-03T06:09:52.793Z,57.49
2019-01-03T06:10:25.948Z,57.37
2019-01-03T06:11:09.189Z,57.40
2019-01-03T06:11:56.600Z,57.38
2019-01-03T06:12:29.786Z,57.35
2019-01-03T06:13:04.796Z,57.39
2019-01-03T06:13:43.822Z,57.39
2019-01-03T06:14:21.170Z,57.30
2019-01-03T06:15:10.507Z,57.28
2019-01-03T06:15:44.683Z,57.22
2019-01-03T06:16:31.915Z,57.26
2019-01-03T06:17:06.504Z,57.16
2019-01-03T06:17:43.801Z,57.03
2019-01-03T06:18:20.934Z,56.75
2019-01-03T06:19:02.445Z,56.63
2019-01-03T06:19:39.768Z,56.51
2019-01-03T06:20:16.930Z,56.43
2019-01-03T06:21:08.410Z,56.40
2019-01-03T06:21:59.351Z,56.52
2019-01-03T06:22:30.961Z,56.32
2019-01-03T06:23:17.445Z,56.35
2019-01-03T06:24:03.927Z,56.08
2019-01-03T06:24:50.357Z,56.11
2019-01-03T06:25:27.456Z,56.12
2019-01-03T06:26:02.804Z,56.08
2019-01-03T06:26:40.168Z,56.08
2019-01-03T06:27:18.276Z,55.89
2019-01-03T06:28:08.118Z,55.87
2019-01-03T06:28:41.140Z,55.74
2019-01-03T06:29:15.251Z,55.88
2019-01-03T06:29:57.670Z,55.75
2019-01-03T06:30:35.022Z,55.82
2019-01-03T06:31:08.373Z,55.75
2019-01-03T06:31:42.646Z,55.80
2019-01-03T06:32:20.955Z,55.64
2019-01-03T06:32:58.393Z,55.56
2019-01-03T06:33:31.960Z,55.49
2019-01-03T06:34:22.240Z,55.55
2019-01-03T06:35:12.503Z,55.54
2019-01-03T06:35:47.937Z,55.57
2019-01-03T06:36:22.079Z,55.74
2019-01-03T06:36:53.702Z,55.83
2019-01-03T06:37:31.192Z,55.75
2019-01-03T06:38:02.776Z,55.81
2019-01-03T06:38:38.135Z,55.82
2019-01-03T06:39:19.647Z,55.77
2019-01-03T06:39:56.908Z,55.83
2019-01-03T06:40:38.421Z,55.89
2019-01-03T06:41:19.974Z,55.91
2019-01-03T06:41:51.580Z,55.90
2019-01-03T06:42:41.922Z,55.95
2019-01-03T06:43:13.524Z,55.99
2019-01-03T06:43:45.599Z,56.05
2019-01-03T06:44:29.902Z,56.04
2019-01-03T06:45:07.054Z,56.11
2019-01-03T06:45:43.505Z,56.28
2019-01-03T06:46:20.902Z,56.27
2019-01-03T06:47:11.272Z,56.19
2019-01-03T06:47:42.865Z,56.14
2019-01-03T06:48:20.284Z,56.27
2019-01-03T06:48:59.377Z,56.50
2019-01-03T06:49:31.693Z,56.53
2019-01-03T06:50:17.034Z,56.48
2019-01-03T06:50:54.159Z,56.62
2019-01-03T06:51:41.001Z,56.64
2019-01-03T06:52:15.080Z,56.65
2019-01-03T06:52:52.481Z,56.71
2019-01-03T06:53:29.723Z,56.83
2019-01-03T06:54:21.051Z,56.88
2019-01-03T06:54:55.465Z,57.07
2019-01-03T06:55:46.246Z,57.25
2019-01-03T06:56:26.225Z,57.39
2019-01-03T06:57:03.613Z,57.50
2019-01-03T06:57:40.056Z,57.58
2019-01-03T06:58:29.392Z,57.78
2019-01-03T07:00:04.626Z,57.94
2019-01-03T07:00:40.874Z,58.09
2019-01-03T07:01:18.197Z,58.12
2019-01-03T07:01:50.312Z,58.20
2019-01-03T07:02:27.396Z,58.21
2019-01-03T07:02:58.993Z,58.26
2019-01-03T07:03:31.193Z,58.31
2019-01-03T07:04:19.394Z,58.42
2019-01-03T07:04:56.657Z,58.48
2019-01-03T07:05:29.020Z,58.53
2019-01-03T07:06:01.096Z,58.64
2019-01-03T07:06:32.695Z,58.68
2019-01-03T07:07:22.084Z,58.76
2019-01-03T07:08:13.554Z,58.86
2019-01-03T07:08:45.135Z,58.99
2019-01-03T07:09:22.396Z,59.12
2019-01-03T07:10:11.612Z,59.30
2019-01-03T07:10:57.080Z,59.28
2019-01-03T07:11:28.664Z,59.42
2019-01-03T07:12:20.084Z,59.50
2019-01-03T07:13:07.435Z,59.50
2019-01-03T07:14:52.755Z,59.89
2019-01-03T07:15:26.808Z,59.88
2019-01-03T07:15:59.118Z,59.96
2019-01-03T07:16:36.475Z,60.02
2019-01-03T07:17:22.949Z,60.11
2019-01-03T07:17:58.314Z,60.18
2019-01-03T07:18:47.588Z,60.25
2019-01-03T07:19:21.581Z,60.41
2019-01-03T07:19:58.738Z,60.49
2019-01-03T07:20:35.960Z,60.70
2019-01-03T07:21:27.350Z,60.60
2019-01-03T07:22:07.490Z,60.72
2019-01-03T07:22:44.714Z,60.76
2019-01-03T07:23:18.817Z,60.84
2019-01-03T07:23:53.244Z,60.94
2019-01-03T07:24:44.713Z,60.98
2019-01-03T07:25:31.200Z,61.03
2019-01-03T07:27:15.584Z,61.31
2019-01-03T07:27:49.002Z,61.27
2019-01-03T07:28:37.286Z,61.21
2019-01-03T07:29:11.596Z,61.24
2019-01-03T07:30:03.067Z,61.28
2019-01-03T07:30:47.521Z,61.31
2019-01-03T07:31:24.760Z,61.37
2019-01-03T07:32:15.119Z,61.35
2019-01-03T07:32:52.274Z,61.21
2019-01-03T07:33:29.528Z,61.18
2019-01-03T07:34:15.998Z,60.95
2019-01-03T07:34:53.319Z,60.49
2019-01-03T07:35:44.569Z,60.52
2019-01-03T07:36:34.108Z,60.45
2019-01-03T07:37:21.437Z,60.22
2019-01-03T07:38:04.870Z,60.15
2019-01-03T07:38:53.181Z,59.97
2019-01-03T07:39:27.718Z,59.84
2019-01-03T07:40:04.871Z,59.75
2019-01-03T07:40:37.294Z,60.08
2019-01-03T07:41:18.807Z,60.04
2019-01-03T07:41:56.133Z,60.01
2019-01-03T07:42:33.313Z,59.80
2019-01-03T07:43:23.612Z,60.04
2019-01-03T07:43:55.233Z,59.78
2019-01-03T07:44:31.292Z,60.19
2019-01-03T07:45:17.780Z,60.46
2019-01-03T07:46:09.159Z,59.37
2019-01-03T07:46:46.294Z,58.68
2019-01-03T07:47:35.581Z,58.29
2019-01-03T07:48:09.162Z,57.90
2019-01-03T07:48:43.270Z,57.97
2019-01-03T07:49:34.712Z,58.03
2019-01-03T07:50:09.199Z,57.67
2019-01-03T07:50:55.673Z,57.63
2019-01-03T07:51:32.849Z,57.98
2019-01-03T07:52:20.048Z,57.61
2019-01-03T07:53:06.522Z,57.57
2019-01-03T07:53:40.420Z,58.11
2019-01-03T07:54:17.148Z,57.54
2019-01-03T07:54:54.246Z,57.63
2019-01-03T07:55:26.325Z,57.44
2019-01-03T07:56:02.504Z,57.51
2019-01-03T07:56:34.564Z,57.73
2019-01-03T07:57:06.143Z,57.91
2019-01-03T07:57:53.349Z,57.80
2019-01-03T07:59:38.618Z,58.20
2019-01-03T08:01:13.605Z,58.32
2019-01-03T08:01:49.765Z,58.17
2019-01-03T08:02:37.184Z,58.40
2019-01-03T08:03:25.404Z,58.12
2019-01-03T08:04:14.771Z,58.06
2019-01-03T08:04:50.200Z,58.31
2019-01-03T08:05:25.754Z,58.34
2019-01-03T08:05:59.163Z,58.43
2019-01-03T08:06:44.628Z,58.23
2019-01-03T08:07:31.088Z,58.25
2019-01-03T08:08:08.390Z,58.37
2019-01-03T08:08:45.590Z,58.45
2019-01-03T08:09:20.008Z,58.60
2019-01-03T08:09:53.475Z,58.51
2019-01-03T08:10:25.679Z,58.41
2019-01-03T08:11:00.190Z,58.47
2019-01-03T08:11:37.517Z,58.61
2019-01-03T08:12:09.105Z,58.60
2019-01-03T08:12:59.541Z,58.63
2019-01-03T08:13:36.888Z,58.40
2019-01-03T08:14:23.367Z,58.27
2019-01-03T08:15:00.812Z,58.55
2019-01-03T08:15:37.985Z,58.55
2019-01-03T08:16:10.427Z,58.61
2019-01-03T08:17:01.799Z,58.51
2019-01-03T08:17:38.921Z,58.69
2019-01-03T08:19:16.985Z,58.66
2019-01-03T08:19:58.536Z,58.78
2019-01-03T08:20:45.024Z,58.73
2019-01-03T08:21:22.197Z,58.83
2019-01-03T08:21:59.254Z,58.85
2019-01-03T08:22:36.626Z,58.91
2019-01-03T08:23:20.062Z,59.02
2019-01-03T08:23:53.501Z,59.09
2019-01-03T08:24:39.985Z,59.12
2019-01-03T08:25:17.313Z,59.21
2019-01-03T08:25:54.537Z,59.28
2019-01-03T08:26:26.131Z,59.19
2019-01-03T08:26:57.740Z,59.27
2019-01-03T08:27:32.168Z,59.69
2019-01-03T08:28:03.767Z,59.71
2019-01-03T08:28:35.833Z,59.64
2019-01-03T08:29:22.308Z,59.65
2019-01-03T08:30:12.769Z,59.75
2019-01-03T08:30:52.001Z,60.89
2019-01-03T08:31:24.921Z,60.70
2019-01-03T08:31:59.347Z,60.69
2019-01-03T08:32:49.773Z,60.67
2019-01-03T08:33:27.086Z,61.32
2019-01-03T08:34:07.251Z,61.49
2019-01-03T08:34:44.634Z,61.16
2019-01-03T08:35:18.762Z,61.62
2019-01-03T08:36:07.970Z,61.33
2019-01-03T08:36:45.278Z,60.94
2019-01-03T08:37:22.633Z,56.46
2019-01-03T08:37:59.739Z,48.97
2019-01-03T08:38:33.943Z,46.80
2019-01-03T08:39:11.170Z,53.41
2019-01-03T08:39:59.381Z,53.77
2019-01-03T08:40:34.597Z,57.14
2019-01-03T08:41:11.845Z,57.18
2019-01-03T08:41:47.035Z,58.00
2019-01-03T08:42:34.339Z,56.76
2019-01-03T08:43:09.517Z,55.88
2019-01-03T08:43:46.919Z,55.86
2019-01-03T08:44:22.962Z,55.62
2019-01-03T08:44:57.533Z,55.51
2019-01-03T08:45:43.919Z,55.42
2019-01-03T08:46:19.378Z,55.38
2019-01-03T08:46:53.979Z,55.36
2019-01-03T08:47:45.395Z,55.39
2019-01-03T08:48:19.755Z,55.56
2019-01-03T08:49:00.457Z,55.48
2019-01-03T08:49:45.507Z,55.76